Tillabery, Niger
Current Conditions -  °F | °C
As of 1:00 AM on Sunday 26 Oct 2014 (Local Time) from DRRN Reporting Station
Clear Clear  
Wind Chill: 82°   Ceiling: Unl
Heat Index: 82°   Visibility: 6mi
Dew Point: 45°   Wind: 3mph
Humidity: 26%   Direction: 350°N
Pressure: 29.85"   Gusts: NA
Location:  14.21°N, 1.45°E
Report Text: DRRN 260000Z 35003KT CAVOK 28/07 Q1011 NOSIG
Loading
Personal Weather Stations






























Interactive Weather Map
Tropical Storm Tracking
New forecast layout! Learn more

10-Day Weather Forecast

Advertisements
Track Severe Weather on mobile